createdAt,value
2018-11-27T00:00:09.359Z,87.32
2018-11-27T00:02:37.048Z,87.22
2018-11-27T00:05:05.048Z,87.12
2018-11-27T00:07:32.687Z,87.35
2018-11-27T00:10:00.399Z,87.12
2018-11-27T00:12:28.088Z,87.10
2018-11-27T00:14:56.719Z,87.10
2018-11-27T00:17:24.360Z,86.94
2018-11-27T00:19:52.033Z,87.95
2018-11-27T00:22:19.745Z,87.84
2018-11-27T00:24:47.447Z,87.21
2018-11-27T00:27:15.096Z,87.49
2018-11-27T00:29:42.805Z,87.36
2018-11-27T00:32:10.464Z,86.84
2018-11-27T00:34:38.162Z,86.53
2018-11-27T00:37:05.861Z,87.01
2018-11-27T00:39:33.635Z,86.99
2018-11-27T00:42:01.317Z,87.25
2018-11-27T00:44:28.965Z,87.06
2018-11-27T00:46:56.625Z,86.40
2018-11-27T00:49:24.268Z,86.93
2018-11-27T00:51:51.929Z,87.01
2018-11-27T00:54:20.071Z,87.11
2018-11-27T00:56:47.362Z,87.37
2018-11-27T00:59:15.013Z,86.87
2018-11-27T01:01:42.714Z,87.47
2018-11-27T01:04:11.412Z,87.09
2018-11-27T01:06:39.023Z,87.27
2018-11-27T01:09:08.326Z,86.91
2018-11-27T01:11:36.102Z,87.25
2018-11-27T01:14:03.939Z,87.64
2018-11-27T01:16:31.574Z,87.51
2018-11-27T01:18:59.210Z,87.19
2018-11-27T01:21:26.841Z,87.14
2018-11-27T01:23:54.577Z,87.33
2018-11-27T01:26:22.294Z,87.04
2018-11-27T01:28:50.003Z,87.33
2018-11-27T01:31:17.675Z,86.86
2018-11-27T01:33:45.330Z,87.35
2018-11-27T01:36:13.015Z,87.04
2018-11-27T01:38:40.679Z,86.90
2018-11-27T01:41:08.340Z,87.53
2018-11-27T01:43:36.232Z,87.13
2018-11-27T01:46:04.496Z,87.33
2018-11-27T01:48:32.186Z,87.48
2018-11-27T01:50:59.843Z,87.29
2018-11-27T01:53:27.513Z,87.44
2018-11-27T01:55:55.168Z,88.31
2018-11-27T01:58:23.142Z,88.20
2018-11-27T02:00:50.819Z,88.34
2018-11-27T02:03:18.475Z,87.81
2018-11-27T02:05:46.158Z,87.80
2018-11-27T02:08:13.843Z,87.81
2018-11-27T02:10:41.539Z,87.56
2018-11-27T02:13:09.263Z,88.04
2018-11-27T02:15:36.962Z,88.26
2018-11-27T02:18:04.737Z,88.08
2018-11-27T02:20:32.374Z,87.93
2018-11-27T02:23:00.047Z,88.26
2018-11-27T02:25:28.776Z,87.76
2018-11-27T02:27:56.640Z,87.76
2018-11-27T02:30:25.451Z,88.84
2018-11-27T02:32:53.122Z,88.04
2018-11-27T02:35:22.633Z,87.83
2018-11-27T02:37:52.100Z,87.80
2018-11-27T02:40:19.727Z,87.77
2018-11-27T02:42:47.409Z,87.70
2018-11-27T02:45:17.507Z,87.69
2018-11-27T02:47:45.653Z,87.98
2018-11-27T02:50:14.387Z,87.67
2018-11-27T02:52:42.100Z,87.63
2018-11-27T02:55:13.941Z,87.98
2018-11-27T02:57:41.620Z,87.73
2018-11-27T03:00:13.304Z,87.92
2018-11-27T03:02:41.051Z,87.43
2018-11-27T03:05:11.042Z,87.46
2018-11-27T03:07:38.734Z,87.20
2018-11-27T03:10:08.996Z,87.85
2018-11-27T03:12:36.679Z,87.88
2018-11-27T03:15:04.993Z,88.01
2018-11-27T03:17:32.647Z,87.68
2018-11-27T03:20:00.318Z,88.24
2018-11-27T03:22:27.999Z,88.34
2018-11-27T03:24:55.655Z,88.31
2018-11-27T03:27:23.293Z,88.68
2018-11-27T03:29:50.959Z,88.57
2018-11-27T03:32:18.629Z,88.17
2018-11-27T03:34:46.303Z,87.83
2018-11-27T03:37:13.956Z,87.99
2018-11-27T03:39:41.636Z,87.78
2018-11-27T03:42:09.265Z,87.42
2018-11-27T03:44:36.961Z,87.82
2018-11-27T03:47:04.869Z,87.38
2018-11-27T03:49:32.542Z,87.06
2018-11-27T03:52:00.187Z,86.91
2018-11-27T03:54:27.868Z,87.34
2018-11-27T03:56:55.511Z,86.98
2018-11-27T03:59:23.170Z,86.35
2018-11-27T04:01:50.872Z,87.13
2018-11-27T04:04:18.556Z,87.29
2018-11-27T04:06:46.197Z,86.81
2018-11-27T04:09:13.850Z,87.07
2018-11-27T04:11:41.482Z,87.22
2018-11-27T04:14:09.192Z,86.92
2018-11-27T04:16:36.874Z,86.95
2018-11-27T04:19:04.869Z,86.93
2018-11-27T04:21:32.614Z,87.89
2018-11-27T04:24:00.315Z,87.12
2018-11-27T04:26:27.980Z,87.16
2018-11-27T04:28:55.615Z,86.93
2018-11-27T04:31:23.312Z,87.37
2018-11-27T04:33:50.947Z,87.56
2018-11-27T04:36:18.609Z,87.20
2018-11-27T04:38:46.287Z,87.12
2018-11-27T04:41:13.941Z,87.19
2018-11-27T04:43:41.620Z,87.29
2018-11-27T04:46:09.275Z,87.22
2018-11-27T04:48:36.948Z,87.22
2018-11-27T04:51:05.021Z,87.53
2018-11-27T04:53:32.643Z,87.54
2018-11-27T04:56:00.299Z,87.18
2018-11-27T04:58:27.970Z,87.30
2018-11-27T05:00:55.615Z,87.49
2018-11-27T05:03:23.303Z,87.68
2018-11-27T05:05:50.975Z,87.24
2018-11-27T05:08:18.654Z,87.18
2018-11-27T05:10:46.288Z,86.74
2018-11-27T05:13:13.972Z,86.37
2018-11-27T05:15:41.619Z,86.65
2018-11-27T05:18:09.241Z,86.19
2018-11-27T05:20:36.952Z,86.53
2018-11-27T05:23:05.558Z,87.02
2018-11-27T05:25:33.273Z,87.16
2018-11-27T05:28:12.427Z,86.70
2018-11-27T05:30:40.206Z,87.10
2018-11-27T05:33:07.843Z,87.38
2018-11-27T05:35:35.490Z,86.85
2018-11-27T05:38:03.130Z,87.20
2018-11-27T05:40:30.852Z,86.92
2018-11-27T05:43:03.959Z,86.99
2018-11-27T05:45:31.791Z,86.95
2018-11-27T05:47:59.556Z,87.30
2018-11-27T05:50:27.277Z,86.80
2018-11-27T05:52:54.907Z,86.55
2018-11-27T05:55:22.551Z,86.61
2018-11-27T05:57:51.835Z,86.63
2018-11-27T06:00:20.846Z,87.06
2018-11-27T06:03:06.287Z,87.06
2018-11-27T06:05:34.013Z,87.08
2018-11-27T06:08:01.680Z,87.05
2018-11-27T06:10:29.370Z,87.12
2018-11-27T06:12:57.051Z,86.98
2018-11-27T06:15:25.007Z,86.89
2018-11-27T06:17:56.742Z,86.67
2018-11-27T06:20:24.443Z,86.74
2018-11-27T06:22:52.598Z,86.98
2018-11-27T06:25:23.019Z,86.86
2018-11-27T06:27:53.538Z,87.35
2018-11-27T06:30:22.367Z,86.09
2018-11-27T06:32:50.027Z,86.62
2018-11-27T06:35:34.123Z,86.86
2018-11-27T06:38:02.028Z,86.76
2018-11-27T06:40:30.398Z,86.82
2018-11-27T06:42:58.894Z,87.14
2018-11-27T06:45:26.510Z,87.08
2018-11-27T06:47:54.222Z,87.02
2018-11-27T06:50:22.403Z,86.89
2018-11-27T06:52:50.109Z,87.60
2018-11-27T06:55:18.813Z,86.73
2018-11-27T06:57:46.490Z,86.81
2018-11-27T07:00:16.182Z,86.53
2018-11-27T07:02:43.879Z,86.38
2018-11-27T07:05:12.219Z,86.52
2018-11-27T07:07:40.227Z,86.84
2018-11-27T07:10:16.122Z,85.98
2018-11-27T07:12:43.790Z,85.89
2018-11-27T07:15:13.494Z,86.17
2018-11-27T07:17:42.156Z,86.04
2018-11-27T07:20:11.147Z,86.50
2018-11-27T07:22:38.795Z,85.60
2018-11-27T07:25:11.292Z,85.50
2018-11-27T07:27:39.088Z,85.18
2018-11-27T07:30:10.421Z,85.74
2018-11-27T07:32:38.097Z,85.69
2018-11-27T07:35:07.305Z,86.09
2018-11-27T07:37:34.982Z,85.41
2018-11-27T07:40:03.398Z,85.65
2018-11-27T07:42:30.843Z,85.63
2018-11-27T07:44:58.490Z,86.25
2018-11-27T07:47:26.150Z,85.75
2018-11-27T07:49:53.785Z,85.76
2018-11-27T07:52:21.419Z,86.23
2018-11-27T07:54:49.027Z,85.42
2018-11-27T07:57:16.663Z,85.54
2018-11-27T07:59:44.621Z,85.67
2018-11-27T08:02:12.291Z,85.54
2018-11-27T08:04:39.924Z,85.58
2018-11-27T08:07:07.519Z,85.52
2018-11-27T08:09:35.755Z,85.20
2018-11-27T08:12:03.430Z,85.01
2018-11-27T08:14:31.115Z,85.16
2018-11-27T08:16:58.739Z,84.78
2018-11-27T08:19:26.354Z,84.97
2018-11-27T08:21:53.971Z,85.55
2018-11-27T08:24:21.583Z,84.87
2018-11-27T08:26:49.183Z,85.07
2018-11-27T08:29:16.835Z,84.96
2018-11-27T08:31:44.470Z,85.08
2018-11-27T08:34:12.115Z,85.24
2018-11-27T08:36:39.749Z,85.14
2018-11-27T08:39:08.895Z,85.31
2018-11-27T08:41:40.290Z,84.83
2018-11-27T08:44:04.607Z,84.92
2018-11-27T08:46:32.244Z,85.51
2018-11-27T08:48:59.890Z,84.75
2018-11-27T08:51:27.499Z,84.64
2018-11-27T08:53:55.154Z,85.11
2018-11-27T08:56:22.778Z,84.98
2018-11-27T08:58:50.419Z,85.29
2018-11-27T09:01:18.032Z,85.09
2018-11-27T09:03:46.545Z,84.89
2018-11-27T09:06:13.387Z,84.60
2018-11-27T09:08:40.993Z,85.07
2018-11-27T09:11:08.647Z,84.60
2018-11-27T09:13:36.303Z,84.62
2018-11-27T09:16:03.967Z,84.58
2018-11-27T09:18:31.611Z,84.03
2018-11-27T09:20:59.334Z,84.57
2018-11-27T09:23:26.966Z,84.60
2018-11-27T09:25:54.584Z,85.48
2018-11-27T09:28:22.259Z,85.28
2018-11-27T09:30:49.902Z,85.23
2018-11-27T09:33:17.532Z,84.33
2018-11-27T09:35:45.198Z,85.21
2018-11-27T09:38:12.861Z,85.27
2018-11-27T09:40:40.522Z,85.06
2018-11-27T09:43:08.136Z,84.45
2018-11-27T09:45:37.091Z,84.79
2018-11-27T09:48:04.865Z,85.53
2018-11-27T09:50:33.537Z,84.94
2018-11-27T09:53:01.158Z,85.19
2018-11-27T09:55:28.777Z,84.97
2018-11-27T09:57:58.977Z,84.70
2018-11-27T10:00:26.455Z,84.79
2018-11-27T10:02:55.370Z,84.37
2018-11-27T10:05:22.988Z,84.34
2018-11-27T10:07:50.687Z,84.08
2018-11-27T10:10:19.926Z,84.57
2018-11-27T10:12:47.580Z,83.74
2018-11-27T10:15:16.485Z,84.61
2018-11-27T10:17:45.372Z,84.15
2018-11-27T10:20:21.903Z,84.74
2018-11-27T10:22:49.543Z,85.23
2018-11-27T10:25:17.222Z,84.36
2018-11-27T10:27:45.037Z,84.36
2018-11-27T10:30:14.690Z,84.58
2018-11-27T10:32:42.322Z,84.25
2018-11-27T10:35:11.922Z,84.49
2018-11-27T10:37:39.564Z,84.68
2018-11-27T10:40:08.484Z,85.25
2018-11-27T10:42:36.128Z,85.46
2018-11-27T10:45:04.109Z,84.73
2018-11-27T10:47:31.735Z,84.87
2018-11-27T10:49:59.404Z,84.23
2018-11-27T10:52:27.031Z,85.14
2018-11-27T10:54:54.661Z,84.69
2018-11-27T10:57:22.275Z,84.62
2018-11-27T10:59:49.924Z,84.68
2018-11-27T11:02:23.110Z,84.38
2018-11-27T11:04:50.762Z,84.85
2018-11-27T11:07:18.392Z,85.39
2018-11-27T11:09:46.015Z,85.24
2018-11-27T11:12:13.650Z,85.44
2018-11-27T11:14:41.276Z,85.27
2018-11-27T11:17:08.992Z,85.16
2018-11-27T11:19:36.646Z,85.00
2018-11-27T11:22:04.361Z,85.26
2018-11-27T11:24:31.996Z,84.86
2018-11-27T11:26:59.632Z,85.71
2018-11-27T11:29:27.271Z,84.73
2018-11-27T11:31:54.883Z,85.26
2018-11-27T11:34:22.535Z,85.47
2018-11-27T11:36:50.236Z,84.72
2018-11-27T11:39:17.893Z,85.01
2018-11-27T11:41:45.590Z,84.71
2018-11-27T11:44:13.235Z,84.45
2018-11-27T11:46:40.907Z,85.30
2018-11-27T11:49:08.548Z,85.09
2018-11-27T11:51:36.180Z,85.67
2018-11-27T11:54:03.854Z,84.67
2018-11-27T11:56:31.488Z,84.94
2018-11-27T11:58:59.128Z,85.34
2018-11-27T12:01:26.775Z,85.27
2018-11-27T12:03:54.419Z,84.44
2018-11-27T12:06:22.050Z,85.20
2018-11-27T12:08:49.690Z,84.98
2018-11-27T12:11:17.408Z,85.40
2018-11-27T12:13:45.057Z,85.19
2018-11-27T12:16:12.711Z,85.07
2018-11-27T12:18:40.335Z,84.96
2018-11-27T12:21:07.978Z,84.58
2018-11-27T12:23:35.599Z,84.64
2018-11-27T12:26:03.294Z,85.52
2018-11-27T12:28:30.909Z,84.48
2018-11-27T12:30:58.550Z,84.98
2018-11-27T12:33:26.178Z,84.41
2018-11-27T12:35:53.813Z,84.78
2018-11-27T12:38:21.420Z,84.29
2018-11-27T12:40:49.148Z,85.17
2018-11-27T12:43:16.859Z,85.26
2018-11-27T12:45:44.505Z,84.77
2018-11-27T12:48:12.127Z,85.04
2018-11-27T12:50:43.113Z,85.03
2018-11-27T12:53:16.740Z,85.13
2018-11-27T12:55:40.971Z,85.10
2018-11-27T12:58:08.656Z,85.27
2018-11-27T13:00:36.510Z,84.93
2018-11-27T13:03:04.299Z,85.69
2018-11-27T13:05:38.264Z,85.46
2018-11-27T13:08:13.142Z,85.34
2018-11-27T13:10:40.845Z,85.75
2018-11-27T13:13:08.476Z,85.93
2018-11-27T13:15:37.219Z,85.99
2018-11-27T13:18:05.494Z,86.02
2018-11-27T13:20:33.195Z,85.80
2018-11-27T13:23:00.908Z,86.22
2018-11-27T13:25:28.555Z,86.18
2018-11-27T13:27:56.191Z,86.29
2018-11-27T13:30:39.522Z,86.46
2018-11-27T13:33:19.057Z,86.12
2018-11-27T13:35:46.713Z,86.13
2018-11-27T13:38:14.346Z,86.00
2018-11-27T13:40:42.000Z,86.35
2018-11-27T13:43:11.031Z,86.34
2018-11-27T13:45:38.678Z,86.62
2018-11-27T13:48:06.858Z,87.01
2018-11-27T13:50:34.592Z,87.14
2018-11-27T13:53:02.264Z,86.60
2018-11-27T13:55:29.936Z,86.47
2018-11-27T13:57:57.587Z,86.72
2018-11-27T14:00:25.225Z,86.71
2018-11-27T14:02:55.067Z,86.44
2018-11-27T14:05:23.963Z,86.71
2018-11-27T14:07:51.668Z,87.53
2018-11-27T14:10:19.417Z,86.93
2018-11-27T14:12:47.109Z,87.46
2018-11-27T14:15:19.962Z,87.19
2018-11-27T14:17:47.879Z,87.15
2018-11-27T14:20:15.525Z,86.75
2018-11-27T14:22:45.593Z,87.31
2018-11-27T14:25:13.791Z,87.40
2018-11-27T14:27:41.495Z,86.48
2018-11-27T14:30:13.859Z,86.53
2018-11-27T14:32:41.512Z,87.42
2018-11-27T14:35:09.502Z,87.74
2018-11-27T14:37:37.172Z,87.48
2018-11-27T14:40:09.761Z,86.44
2018-11-27T14:42:37.552Z,87.49
2018-11-27T14:45:09.299Z,87.65
2018-11-27T14:47:37.805Z,87.86
2018-11-27T14:50:07.433Z,87.18
2018-11-27T14:52:35.123Z,87.02
2018-11-27T14:55:02.836Z,86.97
2018-11-27T14:57:30.490Z,87.13
2018-11-27T14:59:58.158Z,87.33
2018-11-27T15:02:25.815Z,87.71
2018-11-27T15:04:53.478Z,88.10
2018-11-27T15:07:21.131Z,87.33
2018-11-27T15:09:48.765Z,87.06
2018-11-27T15:12:16.422Z,87.22
2018-11-27T15:14:44.082Z,87.46
2018-11-27T15:17:11.778Z,87.12
2018-11-27T15:19:39.419Z,86.85
2018-11-27T15:22:07.120Z,87.32
2018-11-27T15:24:34.735Z,87.07
2018-11-27T15:27:02.407Z,86.68
2018-11-27T15:29:30.001Z,86.39
2018-11-27T15:31:57.641Z,86.25
2018-11-27T15:34:25.332Z,86.57
2018-11-27T15:36:52.984Z,86.86
2018-11-27T15:39:20.651Z,86.67
2018-11-27T15:41:48.288Z,87.16
2018-11-27T15:44:15.910Z,87.56
2018-11-27T15:46:43.548Z,87.45
2018-11-27T15:49:11.186Z,86.24
2018-11-27T15:51:38.854Z,86.79
2018-11-27T15:54:06.515Z,86.72
2018-11-27T15:56:34.167Z,86.03
2018-11-27T15:59:02.211Z,85.86
2018-11-27T16:01:29.864Z,86.29
2018-11-27T16:03:57.498Z,84.53
2018-11-27T16:06:25.213Z,85.99
2018-11-27T16:08:52.986Z,85.41
2018-11-27T16:11:20.626Z,85.80
2018-11-27T16:13:49.202Z,85.76
2018-11-27T16:16:16.011Z,86.87
2018-11-27T16:18:43.699Z,86.05
2018-11-27T16:21:11.325Z,85.69
2018-11-27T16:23:38.991Z,85.83
2018-11-27T16:26:06.674Z,85.19
2018-11-27T16:28:34.309Z,84.88
2018-11-27T16:31:02.111Z,85.91
2018-11-27T16:33:29.785Z,85.83
2018-11-27T16:35:57.463Z,85.92
2018-11-27T16:38:25.153Z,85.76
2018-11-27T16:40:52.918Z,85.23
2018-11-27T16:43:20.530Z,85.29
2018-11-27T16:45:48.222Z,84.70
2018-11-27T16:48:15.870Z,85.88
2018-11-27T16:50:43.512Z,85.54
2018-11-27T16:53:11.167Z,86.49
2018-11-27T16:55:38.816Z,86.63
2018-11-27T16:58:06.554Z,86.42
2018-11-27T17:00:35.121Z,86.09
2018-11-27T17:03:03.931Z,86.85
2018-11-27T17:05:34.169Z,85.22
2018-11-27T17:08:01.797Z,85.31
2018-11-27T17:10:29.456Z,85.33
2018-11-27T17:12:57.758Z,85.07
2018-11-27T17:15:27.789Z,85.18
2018-11-27T17:17:55.591Z,85.53
2018-11-27T17:20:25.467Z,86.11
2018-11-27T17:22:53.730Z,86.08
2018-11-27T17:25:21.463Z,85.58
2018-11-27T17:27:49.639Z,85.58
2018-11-27T17:30:29.305Z,85.08
2018-11-27T17:32:57.438Z,85.62
2018-11-27T17:35:25.727Z,85.69
2018-11-27T17:37:53.408Z,86.22
2018-11-27T17:40:21.187Z,85.51
2018-11-27T17:42:48.908Z,86.05
2018-11-27T17:45:16.604Z,84.55
2018-11-27T17:47:45.009Z,85.95
2018-11-27T17:50:14.989Z,85.50
2018-11-27T17:52:42.691Z,85.62
2018-11-27T17:55:12.118Z,86.21
2018-11-27T17:57:39.802Z,85.30
2018-11-27T18:00:24.163Z,85.06
2018-11-27T18:02:53.102Z,85.76
2018-11-27T18:05:20.760Z,84.86
2018-11-27T18:07:48.480Z,85.24
2018-11-27T18:10:16.168Z,85.99
2018-11-27T18:12:43.857Z,85.11
2018-11-27T18:15:14.505Z,85.58
2018-11-27T18:17:42.244Z,85.51
2018-11-27T18:20:10.830Z,84.07
2018-11-27T18:22:38.454Z,84.19
2018-11-27T18:25:09.115Z,84.85
2018-11-27T18:27:36.766Z,85.44
2018-11-27T18:30:08.430Z,85.31
2018-11-27T18:32:36.632Z,84.39
2018-11-27T18:35:04.474Z,86.26
2018-11-27T18:37:32.152Z,86.07
2018-11-27T18:39:59.890Z,85.91
2018-11-27T18:42:27.606Z,86.05
2018-11-27T18:44:55.225Z,83.76
2018-11-27T18:47:22.907Z,83.87
2018-11-27T18:49:50.599Z,84.31
2018-11-27T18:52:18.268Z,84.50
2018-11-27T18:54:45.886Z,84.24
2018-11-27T18:57:13.562Z,84.71
2018-11-27T18:59:41.204Z,84.92
2018-11-27T19:02:08.937Z,84.36
2018-11-27T19:04:36.715Z,84.97
2018-11-27T19:07:04.650Z,84.45
2018-11-27T19:09:32.356Z,84.22
2018-11-27T19:12:00.011Z,83.94
2018-11-27T19:14:27.967Z,84.20
2018-11-27T19:16:55.567Z,84.23
2018-11-27T19:19:23.226Z,84.22
2018-11-27T19:21:50.854Z,84.59
2018-11-27T19:24:18.587Z,84.27
2018-11-27T19:26:46.232Z,84.40
2018-11-27T19:29:13.890Z,83.83
2018-11-27T19:31:42.139Z,83.96
2018-11-27T19:34:09.806Z,84.42
2018-11-27T19:36:37.483Z,84.38
2018-11-27T19:39:07.627Z,84.11
2018-11-27T19:41:35.296Z,84.36
2018-11-27T19:44:02.952Z,84.59
2018-11-27T19:46:30.588Z,84.60
2018-11-27T19:48:58.390Z,83.72
2018-11-27T19:51:26.032Z,83.67
2018-11-27T19:53:53.809Z,84.05
2018-11-27T19:56:21.511Z,84.06
2018-11-27T19:58:49.219Z,83.85
2018-11-27T20:01:16.894Z,84.23
2018-11-27T20:03:44.538Z,84.02
2018-11-27T20:06:12.319Z,84.16
2018-11-27T20:08:39.959Z,84.47
2018-11-27T20:11:07.626Z,85.09
2018-11-27T20:13:35.345Z,85.15
2018-11-27T20:16:03.048Z,85.32
2018-11-27T20:18:30.766Z,86.07
2018-11-27T20:20:58.431Z,83.24
2018-11-27T20:23:26.106Z,83.05
2018-11-27T20:25:53.752Z,83.24
2018-11-27T20:28:21.413Z,83.66
2018-11-27T20:30:49.091Z,83.71
2018-11-27T20:33:16.725Z,84.17
2018-11-27T20:35:45.592Z,84.43
2018-11-27T20:38:12.163Z,84.75
2018-11-27T20:40:40.414Z,85.35
2018-11-27T20:43:08.098Z,83.73
2018-11-27T20:45:37.015Z,83.16
2018-11-27T20:48:12.674Z,82.39
2018-11-27T20:50:40.295Z,82.77
2018-11-27T20:53:07.946Z,83.03
2018-11-27T20:55:35.859Z,83.75
2018-11-27T20:58:04.061Z,83.56
2018-11-27T21:00:37.170Z,83.12
2018-11-27T21:03:06.130Z,83.53
2018-11-27T21:05:33.827Z,83.85
2018-11-27T21:08:01.502Z,84.52
2018-11-27T21:10:29.150Z,85.38
2018-11-27T21:12:56.832Z,84.14
2018-11-27T21:15:24.502Z,81.96
2018-11-27T21:17:52.168Z,82.50
2018-11-27T21:20:19.900Z,82.99
2018-11-27T21:22:47.571Z,83.41
2018-11-27T21:25:18.278Z,83.59
2018-11-27T21:27:47.593Z,83.83
2018-11-27T21:30:16.341Z,84.26
2018-11-27T21:32:44.149Z,84.16
2018-11-27T21:35:13.197Z,82.34
2018-11-27T21:37:40.958Z,83.01
2018-11-27T21:40:13.339Z,83.77
2018-11-27T21:42:40.998Z,82.43
2018-11-27T21:45:12.629Z,81.96
2018-11-27T21:47:40.321Z,82.45
2018-11-27T21:50:10.623Z,82.09
2018-11-27T21:52:38.259Z,82.53
2018-11-27T21:55:08.044Z,82.62
2018-11-27T21:57:35.802Z,82.57
2018-11-27T22:00:03.867Z,82.76
2018-11-27T22:02:31.543Z,83.13
2018-11-27T22:04:59.243Z,84.22
2018-11-27T22:07:26.911Z,83.63
2018-11-27T22:09:54.551Z,82.24
2018-11-27T22:12:22.171Z,83.13
2018-11-27T22:14:49.845Z,84.26
2018-11-27T22:17:17.503Z,81.91
2018-11-27T22:19:45.171Z,81.83
2018-11-27T22:22:12.819Z,82.04
2018-11-27T22:24:40.480Z,82.00
2018-11-27T22:27:08.190Z,83.20
2018-11-27T22:29:35.850Z,82.23
2018-11-27T22:32:03.546Z,83.25
2018-11-27T22:34:31.208Z,83.45
2018-11-27T22:36:58.876Z,82.02
2018-11-27T22:39:26.563Z,82.70
2018-11-27T22:41:54.206Z,82.87
2018-11-27T22:44:21.868Z,81.93
2018-11-27T22:46:49.520Z,81.69
2018-11-27T22:49:17.154Z,82.72
2018-11-27T22:51:44.867Z,83.56
2018-11-27T22:54:12.518Z,83.37
2018-11-27T22:56:40.155Z,82.86
2018-11-27T22:59:07.804Z,82.21
2018-11-27T23:01:38.900Z,81.23
2018-11-27T23:04:07.803Z,82.50
2018-11-27T23:06:35.833Z,82.05
2018-11-27T23:09:06.256Z,83.22
2018-11-27T23:11:33.923Z,82.48
2018-11-27T23:14:01.581Z,82.30
2018-11-27T23:16:29.227Z,81.45
2018-11-27T23:18:56.863Z,81.32
2018-11-27T23:21:24.539Z,80.78
2018-11-27T23:23:52.202Z,81.20
2018-11-27T23:26:19.894Z,81.59
2018-11-27T23:28:47.547Z,82.19
2018-11-27T23:31:15.213Z,83.12
2018-11-27T23:33:42.904Z,82.26
2018-11-27T23:36:10.591Z,81.83
2018-11-27T23:38:38.232Z,82.12
2018-11-27T23:41:06.021Z,81.98
2018-11-27T23:43:33.679Z,81.19
2018-11-27T23:46:01.327Z,81.71
2018-11-27T23:48:28.967Z,81.32
2018-11-27T23:50:56.636Z,81.10
2018-11-27T23:53:24.298Z,81.27
2018-11-27T23:55:51.984Z,81.55
2018-11-27T23:58:19.621Z,81.72
